createdAt,value
2023-04-10T00:01:07.809Z,55.10
2023-04-10T00:03:34.504Z,58.53
2023-04-10T00:06:01.173Z,52.90
2023-04-10T00:08:27.825Z,54.13
2023-04-10T00:10:54.578Z,55.70
2023-04-10T00:13:21.217Z,50.17
2023-04-10T00:15:48.284Z,49.50
2023-04-10T00:18:14.948Z,51.00
2023-04-10T00:20:41.914Z,49.80
2023-04-10T00:23:08.515Z,46.90
2023-04-10T00:25:35.325Z,43.77
2023-04-10T00:28:01.912Z,47.43
2023-04-10T00:30:28.541Z,44.13
2023-04-10T00:32:55.298Z,47.13
2023-04-10T00:35:22.171Z,48.03
2023-04-10T00:37:50.230Z,46.43
2023-04-10T00:40:16.956Z,45.73
2023-04-10T00:42:43.948Z,46.60
2023-04-10T00:45:11.613Z,44.50
2023-04-10T00:47:38.382Z,45.93
2023-04-10T00:50:06.478Z,47.27
2023-04-10T00:52:33.450Z,47.20
2023-04-10T00:55:00.126Z,48.30
2023-04-10T00:57:27.110Z,47.70
2023-04-10T00:59:53.972Z,53.97
2023-04-10T01:02:20.882Z,48.47
2023-04-10T01:04:51.195Z,47.07
2023-04-10T01:07:43.947Z,48.10
2023-04-10T01:10:47.843Z,50.50
2023-04-10T01:13:33.610Z,52.30
2023-04-10T01:16:16.732Z,54.90
2023-04-10T01:18:56.477Z,54.60
2023-04-10T01:21:24.135Z,54.77
2023-04-10T01:24:00.552Z,54.57
2023-04-10T01:26:45.356Z,57.63
2023-04-10T01:29:19.681Z,55.93
2023-04-10T01:31:57.673Z,57.97
2023-04-10T01:34:28.048Z,57.80
2023-04-10T01:37:04.790Z,53.37
2023-04-10T01:39:36.250Z,59.23
2023-04-10T01:42:05.636Z,55.80
2023-04-10T01:44:34.378Z,61.03
2023-04-10T01:47:02.798Z,58.70
2023-04-10T01:49:31.732Z,54.13
2023-04-10T01:52:00.577Z,56.50
2023-04-10T01:54:33.616Z,55.87
2023-04-10T01:57:02.133Z,52.97
2023-04-10T01:59:29.428Z,54.30
2023-04-10T02:01:57.724Z,52.23
2023-04-10T02:04:26.480Z,55.03
2023-04-10T02:07:17.655Z,49.97
2023-04-10T02:10:02.927Z,51.50
2023-04-10T02:12:43.875Z,49.77
2023-04-10T02:15:11.832Z,49.70
2023-04-10T02:17:39.443Z,52.17
2023-04-10T02:20:07.792Z,55.13
2023-04-10T02:22:35.015Z,53.90
2023-04-10T02:25:04.870Z,49.53
2023-04-10T02:27:34.226Z,55.37
2023-04-10T02:30:03.443Z,53.27
2023-04-10T02:32:31.190Z,53.40
2023-04-10T02:34:57.820Z,53.93
2023-04-10T02:37:24.592Z,55.20
2023-04-10T02:39:51.551Z,52.43
2023-04-10T02:42:18.264Z,50.07
2023-04-10T02:44:44.877Z,55.30
2023-04-10T02:47:11.417Z,59.27
2023-04-10T02:49:38.128Z,54.10
2023-04-10T02:52:04.905Z,57.30
2023-04-10T02:54:31.635Z,55.43
2023-04-10T02:56:58.756Z,57.73
2023-04-10T02:59:25.620Z,59.77
2023-04-10T03:01:52.488Z,62.33
2023-04-10T03:04:19.573Z,63.27
2023-04-10T03:06:46.519Z,63.87
2023-04-10T03:09:13.170Z,60.93
2023-04-10T03:11:39.740Z,64.63
2023-04-10T03:14:06.469Z,65.30
2023-04-10T03:16:33.170Z,63.53
2023-04-10T03:19:00.161Z,65.00
2023-04-10T03:21:27.359Z,66.23
2023-04-10T03:23:54.394Z,63.70
2023-04-10T03:26:21.365Z,61.57
2023-04-10T03:28:48.384Z,66.07
2023-04-10T03:31:17.408Z,69.53
2023-04-10T03:33:44.647Z,67.27
2023-04-10T03:36:11.523Z,68.73
2023-04-10T03:38:38.213Z,69.60
2023-04-10T03:41:05.103Z,67.07
2023-04-10T03:43:31.749Z,71.40
2023-04-10T03:45:58.732Z,70.23
2023-04-10T03:48:28.449Z,74.13
2023-04-10T03:50:55.726Z,72.67
2023-04-10T03:53:22.685Z,75.87
2023-04-10T03:55:49.268Z,77.20
2023-04-10T03:58:15.815Z,84.53
2023-04-10T04:00:42.558Z,83.83
2023-04-10T04:03:09.571Z,81.73
2023-04-10T04:05:36.319Z,86.93
2023-04-10T04:08:06.582Z,86.60
2023-04-10T04:10:33.532Z,94.87
2023-04-10T04:13:00.127Z,91.07
2023-04-10T04:15:26.861Z,99.07
2023-04-10T04:17:53.498Z,97.50
2023-04-10T04:20:20.254Z,92.13
2023-04-10T04:22:47.119Z,93.10
2023-04-10T04:25:13.728Z,93.63
2023-04-10T04:27:40.465Z,93.07
2023-04-10T04:30:07.852Z,90.50
2023-04-10T04:32:34.558Z,91.80
2023-04-10T04:35:01.183Z,85.90
2023-04-10T04:37:27.795Z,80.03
2023-04-10T04:39:54.666Z,84.97
2023-04-10T04:42:21.305Z,85.30
2023-04-10T04:44:49.445Z,74.20
2023-04-10T04:47:16.860Z,79.47
2023-04-10T04:49:43.599Z,78.60
2023-04-10T04:52:10.764Z,72.13
2023-04-10T04:54:37.346Z,74.23
2023-04-10T04:57:04.293Z,76.73
2023-04-10T04:59:30.946Z,71.00
2023-04-10T05:01:58.014Z,71.23
2023-04-10T05:04:25.138Z,66.43
2023-04-10T05:06:51.748Z,66.03
2023-04-10T05:09:18.387Z,62.17
2023-04-10T05:11:44.955Z,59.07
2023-04-10T05:14:11.681Z,54.17
2023-04-10T05:16:38.344Z,52.87
2023-04-10T05:19:04.889Z,55.57
2023-04-10T05:21:31.803Z,48.53
2023-04-10T05:23:58.388Z,45.43
2023-04-10T05:26:25.163Z,49.00
2023-04-10T05:28:51.917Z,47.00
2023-04-10T05:31:18.689Z,42.53
2023-04-10T05:33:45.342Z,44.23
2023-04-10T05:36:12.973Z,42.43
2023-04-10T05:38:39.565Z,42.93
2023-04-10T05:41:06.146Z,38.53
2023-04-10T05:43:32.667Z,44.03
2023-04-10T05:45:59.265Z,38.77
2023-04-10T05:48:26.238Z,38.67
2023-04-10T05:50:52.864Z,37.77
2023-04-10T05:53:21.062Z,40.87
2023-04-10T05:55:56.570Z,40.13
2023-04-10T05:58:23.277Z,38.47
2023-04-10T06:00:49.820Z,36.53
2023-04-10T06:03:16.432Z,38.63
2023-04-10T06:05:43.098Z,37.67
2023-04-10T06:08:09.706Z,36.13
2023-04-10T06:10:36.664Z,35.10
2023-04-10T06:13:04.452Z,35.67
2023-04-10T06:15:31.102Z,37.77
2023-04-10T06:17:57.707Z,35.13
2023-04-10T06:20:24.540Z,33.83
2023-04-10T06:22:53.904Z,32.63
2023-04-10T06:25:20.825Z,32.93
2023-04-10T06:27:47.359Z,34.60
2023-04-10T06:30:13.907Z,34.00
2023-04-10T06:32:42.033Z,32.67
2023-04-10T06:35:09.943Z,32.60
2023-04-10T06:37:37.414Z,30.60
2023-04-10T06:40:09.670Z,31.08
2023-04-10T06:42:36.847Z,29.20
2023-04-10T06:45:04.427Z,29.75
2023-04-10T06:47:32.089Z,26.58
2023-04-10T06:49:58.895Z,28.02
2023-04-10T06:52:25.733Z,28.77
2023-04-10T06:54:52.518Z,28.67
2023-04-10T06:57:19.088Z,26.20
2023-04-10T06:59:46.079Z,25.08
2023-04-10T07:02:12.743Z,26.20
2023-04-10T07:04:39.353Z,23.48
2023-04-10T07:07:09.942Z,25.50
2023-04-10T07:09:36.641Z,25.75
2023-04-10T07:12:03.373Z,23.02
2023-04-10T07:14:29.909Z,22.50
2023-04-10T07:16:56.531Z,22.52
2023-04-10T07:19:23.063Z,22.35
2023-04-10T07:21:50.215Z,21.58
2023-04-10T07:24:17.610Z,20.83
2023-04-10T07:26:44.979Z,22.25
2023-04-10T07:29:12.709Z,19.38
2023-04-10T07:31:40.562Z,21.98
2023-04-10T07:34:07.158Z,19.83
2023-04-10T07:36:39.569Z,20.50
2023-04-10T07:39:15.002Z,19.38
2023-04-10T07:41:41.730Z,20.92
2023-04-10T07:44:08.262Z,17.33
2023-04-10T07:46:34.940Z,17.27
2023-04-10T07:49:01.481Z,17.88
2023-04-10T07:51:28.958Z,16.58
2023-04-10T07:53:56.151Z,16.92
2023-04-10T07:56:23.345Z,16.23
2023-04-10T07:58:51.665Z,18.67
2023-04-10T08:01:18.653Z,17.55
2023-04-10T08:03:47.533Z,15.73
2023-04-10T08:06:14.494Z,15.60
2023-04-10T08:08:42.439Z,16.05
2023-04-10T08:11:26.275Z,15.13
2023-04-10T08:13:53.853Z,15.40
2023-04-10T08:16:31.033Z,15.68
2023-04-10T08:18:58.781Z,15.73
2023-04-10T08:21:27.666Z,16.05
2023-04-10T08:23:59.878Z,13.60
2023-04-10T08:26:27.591Z,14.38
2023-04-10T08:28:57.160Z,14.75
2023-04-10T08:31:25.066Z,13.10
2023-04-10T08:33:52.150Z,13.27
2023-04-10T08:36:20.310Z,13.98
2023-04-10T08:38:47.849Z,12.63
2023-04-10T08:41:16.430Z,12.18
2023-04-10T08:43:45.781Z,14.38
2023-04-10T08:46:14.380Z,12.95
2023-04-10T08:49:07.638Z,12.25
2023-04-10T08:51:50.318Z,12.88
2023-04-10T08:55:00.754Z,12.27
2023-04-10T08:57:28.194Z,11.60
2023-04-10T08:59:55.883Z,12.40
2023-04-10T09:02:40.871Z,12.63
2023-04-10T09:05:12.887Z,14.48
2023-04-10T09:07:39.963Z,12.55
2023-04-10T09:10:08.117Z,13.23
2023-04-10T09:12:46.118Z,13.63
2023-04-10T09:15:14.084Z,12.23
2023-04-10T09:18:01.759Z,12.43
2023-04-10T09:20:32.545Z,12.60
2023-04-10T09:22:59.292Z,11.95
2023-04-10T09:25:38.827Z,12.05
2023-04-10T09:28:09.807Z,12.23
2023-04-10T09:30:42.754Z,12.20
2023-04-10T09:33:24.378Z,12.45
2023-04-10T09:36:04.157Z,11.90
2023-04-10T09:38:31.254Z,11.38
2023-04-10T09:41:08.342Z,12.05
2023-04-10T09:43:35.166Z,11.98
2023-04-10T09:46:01.902Z,11.70
2023-04-10T09:48:29.259Z,12.13
2023-04-10T09:50:56.717Z,11.20
2023-04-10T09:53:23.659Z,11.18
2023-04-10T09:55:50.911Z,10.32
2023-04-10T09:58:22.359Z,10.07
2023-04-10T10:00:49.696Z,10.57
2023-04-10T10:03:19.107Z,9.43
2023-04-10T10:05:49.031Z,8.93
2023-04-10T10:08:16.806Z,9.80
2023-04-10T10:10:49.883Z,9.73
2023-04-10T10:13:40.892Z,9.57
2023-04-10T10:16:23.944Z,9.32
2023-04-10T10:19:09.709Z,10.27
2023-04-10T10:21:40.033Z,9.70
2023-04-10T10:24:09.361Z,7.35
2023-04-10T10:26:43.240Z,8.70
2023-04-10T10:29:14.207Z,7.78
2023-04-10T10:31:42.595Z,7.10
2023-04-10T10:34:09.801Z,8.73
2023-04-10T10:36:37.422Z,6.88
2023-04-10T10:39:13.120Z,7.03
2023-04-10T10:41:47.230Z,7.30
2023-04-10T10:44:29.854Z,7.95
2023-04-10T10:47:04.599Z,6.70
2023-04-10T10:50:00.312Z,9.40
2023-04-10T10:52:57.740Z,6.80
2023-04-10T10:55:24.784Z,6.68
2023-04-10T10:57:53.525Z,6.28
2023-04-10T11:00:25.876Z,6.53
2023-04-10T11:03:08.707Z,6.25
2023-04-10T11:05:52.470Z,6.78
2023-04-10T11:08:48.661Z,6.88
2023-04-10T11:11:25.244Z,7.68
2023-04-10T11:13:57.991Z,6.38
2023-04-10T11:16:31.650Z,7.10
2023-04-10T11:19:13.907Z,7.32
2023-04-10T11:22:06.251Z,9.00
2023-04-10T11:24:52.914Z,7.30
2023-04-10T11:27:48.514Z,7.40
2023-04-10T11:30:29.879Z,6.85
2023-04-10T11:32:57.708Z,7.68
2023-04-10T11:35:25.845Z,7.00
2023-04-10T11:37:56.148Z,5.97
2023-04-10T11:40:22.959Z,6.43
2023-04-10T11:42:50.410Z,6.22
2023-04-10T11:45:24.167Z,7.38
2023-04-10T11:47:52.351Z,6.60
2023-04-10T11:50:20.950Z,7.93
2023-04-10T11:52:53.969Z,7.78
2023-04-10T11:55:35.553Z,6.47
2023-04-10T11:58:02.088Z,7.65
2023-04-10T12:00:28.632Z,6.32
2023-04-10T12:02:55.498Z,6.90
2023-04-10T12:05:22.360Z,6.53
2023-04-10T12:07:50.201Z,6.78
2023-04-10T12:10:16.861Z,6.70
2023-04-10T12:12:43.598Z,6.80
2023-04-10T12:15:27.375Z,7.22
2023-04-10T12:17:54.919Z,6.30
2023-04-10T12:20:26.495Z,6.43
2023-04-10T12:22:56.364Z,6.47
2023-04-10T12:25:23.117Z,7.20
2023-04-10T12:27:52.989Z,5.82
2023-04-10T12:30:19.587Z,5.40
2023-04-10T12:32:54.812Z,5.88
2023-04-10T12:35:37.051Z,5.53
2023-04-10T12:38:03.617Z,6.40
2023-04-10T12:40:30.610Z,6.95
2023-04-10T12:42:57.704Z,5.70
2023-04-10T12:45:44.356Z,5.25
2023-04-10T12:48:11.115Z,6.90
2023-04-10T12:50:47.838Z,5.13
2023-04-10T12:53:15.220Z,5.30
2023-04-10T12:55:42.994Z,4.88
2023-04-10T12:58:21.514Z,5.65
2023-04-10T13:00:49.053Z,5.47
2023-04-10T13:03:16.284Z,5.80
2023-04-10T13:05:43.176Z,4.45
2023-04-10T13:08:10.185Z,4.63
2023-04-10T13:10:38.153Z,5.05
2023-04-10T13:13:06.845Z,5.88
2023-04-10T13:15:36.677Z,5.15
2023-04-10T13:18:05.791Z,4.45
2023-04-10T13:20:36.883Z,5.10
2023-04-10T13:23:03.963Z,5.90
2023-04-10T13:25:33.317Z,4.80
2023-04-10T13:28:03.340Z,4.40
2023-04-10T13:30:30.022Z,4.65
2023-04-10T13:32:56.712Z,4.20
2023-04-10T13:35:23.400Z,4.40
2023-04-10T13:37:53.051Z,3.90
2023-04-10T13:40:21.210Z,3.88
2023-04-10T13:42:48.535Z,4.07
2023-04-10T13:45:15.826Z,4.53
2023-04-10T13:47:43.378Z,4.18
2023-04-10T13:50:10.576Z,3.88
2023-04-10T13:52:37.301Z,6.05
2023-04-10T13:55:04.465Z,3.72
2023-04-10T13:57:31.218Z,4.55
2023-04-10T13:59:58.034Z,3.63
2023-04-10T14:02:24.688Z,4.82
2023-04-10T14:04:51.549Z,4.22
2023-04-10T14:07:19.968Z,3.63
2023-04-10T14:09:47.128Z,4.18
2023-04-10T14:12:16.552Z,4.95
2023-04-10T14:14:44.459Z,3.85
2023-04-10T14:17:11.424Z,4.25
2023-04-10T14:19:41.784Z,4.60
2023-04-10T14:22:09.178Z,4.63
2023-04-10T14:24:35.692Z,11.05
2023-04-10T14:27:02.325Z,3.80
2023-04-10T14:31:59.381Z,4.07
2023-04-10T14:34:26.106Z,3.70
2023-04-10T14:36:55.805Z,3.50
2023-04-10T14:39:24.459Z,4.53
2023-04-10T14:41:51.501Z,4.32
2023-04-10T14:44:18.352Z,3.17
2023-04-10T14:46:45.835Z,5.05
2023-04-10T14:49:14.506Z,10.48
2023-04-10T14:51:43.687Z,3.88
2023-04-10T14:54:10.968Z,3.53
2023-04-10T14:56:37.769Z,3.17
2023-04-10T14:59:04.623Z,3.33
2023-04-10T15:01:31.363Z,3.90
2023-04-10T15:03:58.226Z,5.53
2023-04-10T15:06:27.390Z,3.70
2023-04-10T15:08:56.615Z,2.80
2023-04-10T15:11:23.613Z,4.25
2023-04-10T15:13:50.416Z,3.55
2023-04-10T15:16:17.580Z,4.13
2023-04-10T15:18:47.816Z,4.13
2023-04-10T15:21:15.011Z,4.05
2023-04-10T15:23:41.644Z,4.35
2023-04-10T15:26:13.359Z,3.53
2023-04-10T15:28:41.078Z,4.35
2023-04-10T15:31:07.769Z,6.72
2023-04-10T15:33:36.388Z,7.53
2023-04-10T15:36:04.280Z,9.48
2023-04-10T15:38:32.927Z,5.30
2023-04-10T15:40:59.575Z,23.65
2023-04-10T15:43:26.307Z,10.43
2023-04-10T15:45:53.212Z,4.93
2023-04-10T15:48:22.658Z,11.57
2023-04-10T15:50:49.392Z,5.28
2023-04-10T15:53:16.147Z,5.38
2023-04-10T15:55:42.891Z,5.40
2023-04-10T15:58:09.770Z,5.55
2023-04-10T16:00:36.502Z,4.07
2023-04-10T16:03:03.761Z,4.05
2023-04-10T16:05:30.984Z,4.57
2023-04-10T16:07:59.160Z,3.95
2023-04-10T16:10:26.100Z,3.30
2023-04-10T16:12:52.941Z,4.03
2023-04-10T16:15:19.859Z,4.47
2023-04-10T16:17:46.782Z,3.83
2023-04-10T16:20:14.312Z,3.20
2023-04-10T16:22:41.031Z,3.03
2023-04-10T16:25:09.010Z,3.20
2023-04-10T16:27:35.770Z,3.38
2023-04-10T16:30:02.567Z,3.50
2023-04-10T16:32:31.530Z,3.00
2023-04-10T16:34:58.783Z,3.50
2023-04-10T16:37:25.441Z,3.40
2023-04-10T16:39:52.172Z,3.40
2023-04-10T16:42:18.755Z,3.20
2023-04-10T16:44:45.501Z,3.10
2023-04-10T16:47:12.197Z,3.65
2023-04-10T16:49:40.286Z,4.20
2023-04-10T16:52:06.938Z,3.25
2023-04-10T16:54:33.725Z,4.43
2023-04-10T16:57:01.350Z,3.20
2023-04-10T16:59:28.011Z,3.58
2023-04-10T17:01:54.751Z,3.03
2023-04-10T17:04:21.536Z,5.00
2023-04-10T17:06:48.453Z,3.05
2023-04-10T17:09:18.541Z,2.42
2023-04-10T17:11:45.395Z,3.42
2023-04-10T17:14:13.360Z,3.33
2023-04-10T17:16:41.984Z,2.33
2023-04-10T17:19:10.014Z,2.72
2023-04-10T17:22:19.352Z,2.78
2023-04-10T17:24:46.327Z,2.63
2023-04-10T17:27:16.604Z,2.65
2023-04-10T17:29:43.320Z,3.42
2023-04-10T17:32:10.386Z,2.85
2023-04-10T17:34:37.112Z,3.10
2023-04-10T17:37:04.129Z,2.65
2023-04-10T17:39:31.377Z,2.67
2023-04-10T17:41:58.281Z,2.40
2023-04-10T17:44:24.882Z,3.30
2023-04-10T17:46:53.876Z,2.45
2023-04-10T17:49:22.316Z,3.70
2023-04-10T17:51:49.838Z,2.45
2023-04-10T17:54:16.560Z,2.78
2023-04-10T17:56:43.183Z,2.67
2023-04-10T17:59:10.335Z,2.50
2023-04-10T18:01:37.801Z,2.90
2023-04-10T18:04:05.585Z,2.63
2023-04-10T18:06:33.151Z,1.90
2023-04-10T18:09:00.165Z,2.15
2023-04-10T18:11:27.525Z,1.83
2023-04-10T18:13:54.998Z,1.60
2023-04-10T18:16:21.952Z,2.08
2023-04-10T18:18:48.879Z,1.60
2023-04-10T18:21:15.963Z,2.00
2023-04-10T18:23:44.797Z,1.38
2023-04-10T18:26:12.179Z,2.10
2023-04-10T18:28:39.524Z,1.70
2023-04-10T18:31:06.338Z,1.63
2023-04-10T18:33:33.497Z,1.67
2023-04-10T18:36:00.498Z,2.70
2023-04-10T18:38:29.744Z,1.65
2023-04-10T18:40:59.206Z,2.97
2023-04-10T18:43:30.191Z,2.28
2023-04-10T18:45:58.515Z,2.42
2023-04-10T18:48:27.184Z,1.67
2023-04-10T18:50:54.220Z,2.38
2023-04-10T18:53:22.406Z,2.13
2023-04-10T18:55:53.424Z,2.05
2023-04-10T18:58:23.908Z,2.17
2023-04-10T19:00:51.005Z,2.53
2023-04-10T19:03:18.391Z,2.05
2023-04-10T19:05:45.509Z,2.67
2023-04-10T19:08:15.927Z,1.98
2023-04-10T19:10:43.297Z,2.40
2023-04-10T19:13:12.046Z,2.03
2023-04-10T19:15:44.978Z,3.10
2023-04-10T19:18:13.944Z,5.68
2023-04-10T19:20:50.870Z,2.10
2023-04-10T19:23:19.510Z,3.10
2023-04-10T19:25:46.556Z,2.70
2023-04-10T19:28:13.496Z,2.22
2023-04-10T19:30:40.445Z,2.45
2023-04-10T19:33:07.496Z,2.65
2023-04-10T19:35:34.478Z,2.88
2023-04-10T19:38:01.593Z,2.92
2023-04-10T19:40:31.425Z,2.30
2023-04-10T19:42:59.987Z,2.13
2023-04-10T19:45:29.593Z,1.73
2023-04-10T19:47:57.719Z,2.42
2023-04-10T19:50:27.270Z,3.90
2023-04-10T19:52:54.026Z,2.80
2023-04-10T19:55:21.566Z,3.40
2023-04-10T19:57:49.465Z,3.63
2023-04-10T20:00:16.900Z,4.05
2023-04-10T20:02:44.054Z,4.40
2023-04-10T20:05:14.075Z,2.95
2023-04-10T20:07:41.308Z,2.72
2023-04-10T20:10:11.345Z,2.60
2023-04-10T20:12:38.161Z,3.80
2023-04-10T20:15:05.927Z,3.15
2023-04-10T20:17:32.812Z,3.53
2023-04-10T20:19:59.946Z,4.45
2023-04-10T20:22:27.079Z,5.10
2023-04-10T20:24:54.034Z,4.75
2023-04-10T20:27:20.959Z,6.00
2023-04-10T20:29:48.115Z,6.00
2023-04-10T20:32:15.001Z,6.03
2023-04-10T20:34:41.806Z,6.70
2023-04-10T20:37:08.766Z,8.90
2023-04-10T20:39:37.782Z,9.35
2023-04-10T20:42:06.118Z,12.93
2023-04-10T20:44:37.062Z,13.63
2023-04-10T20:47:05.825Z,9.13
2023-04-10T20:49:40.071Z,10.23
2023-04-10T20:52:07.314Z,11.23
2023-04-10T20:54:36.824Z,9.05
2023-04-10T20:57:05.917Z,9.25
2023-04-10T20:59:33.675Z,7.28
2023-04-10T21:02:00.669Z,10.27
2023-04-10T21:04:27.872Z,7.13
2023-04-10T21:06:54.937Z,4.32
2023-04-10T21:09:21.984Z,4.50
2023-04-10T21:11:58.349Z,3.75
2023-04-10T21:14:25.180Z,5.40
2023-04-10T21:16:52.178Z,5.20
2023-04-10T21:19:19.012Z,4.35
2023-04-10T21:21:46.224Z,4.57
2023-04-10T21:24:13.283Z,4.85
2023-04-10T21:26:40.312Z,4.10
2023-04-10T21:29:07.156Z,4.65
2023-04-10T21:31:34.010Z,5.65
2023-04-10T21:34:00.847Z,6.82
2023-04-10T21:36:27.789Z,5.05
2023-04-10T21:38:54.687Z,4.50
2023-04-10T21:41:27.215Z,5.22
2023-04-10T21:43:56.546Z,5.18
2023-04-10T21:46:23.592Z,4.60
2023-04-10T21:48:50.941Z,4.93
2023-04-10T21:51:21.148Z,7.05
2023-04-10T21:53:48.091Z,5.35
2023-04-10T21:56:14.918Z,5.35
2023-04-10T21:58:41.862Z,5.97
2023-04-10T22:01:08.955Z,5.82
2023-04-10T22:03:35.836Z,6.47
2023-04-10T22:06:02.901Z,4.95
2023-04-10T22:08:29.876Z,6.18
2023-04-10T22:10:59.771Z,5.63
2023-04-10T22:13:30.723Z,7.80
2023-04-10T22:16:02.327Z,8.32
2023-04-10T22:18:31.051Z,5.47
2023-04-10T22:20:57.785Z,6.97
2023-04-10T22:23:24.646Z,8.70
2023-04-10T22:25:51.577Z,6.07
2023-04-10T22:28:18.516Z,5.82
2023-04-10T22:30:45.503Z,4.88
2023-04-10T22:33:12.519Z,4.68
2023-04-10T22:35:39.176Z,4.88
2023-04-10T22:38:08.046Z,4.38
2023-04-10T22:40:34.929Z,5.38
2023-04-10T22:43:01.940Z,4.43
2023-04-10T22:45:28.778Z,4.30
2023-04-10T22:47:58.342Z,4.78
2023-04-10T22:50:25.333Z,3.97
2023-04-10T22:52:52.177Z,5.22
2023-04-10T22:55:19.016Z,5.25
2023-04-10T22:57:49.373Z,7.35
2023-04-10T23:00:16.697Z,6.38
2023-04-10T23:02:43.561Z,5.32
2023-04-10T23:05:10.591Z,5.25
2023-04-10T23:07:37.324Z,6.32
2023-04-10T23:10:04.599Z,5.70
2023-04-10T23:12:31.637Z,5.03
2023-04-10T23:14:58.681Z,5.43
2023-04-10T23:17:25.834Z,4.82
2023-04-10T23:19:52.986Z,4.50
2023-04-10T23:22:20.241Z,3.90
2023-04-10T23:24:48.061Z,4.60
2023-04-10T23:27:15.470Z,4.35
2023-04-10T23:29:42.724Z,4.63
2023-04-10T23:32:09.689Z,5.43
2023-04-10T23:34:36.705Z,4.20
2023-04-10T23:37:03.864Z,4.35
2023-04-10T23:39:31.231Z,4.05
2023-04-10T23:41:58.470Z,3.80
2023-04-10T23:44:25.772Z,3.60
2023-04-10T23:46:53.035Z,5.38
2023-04-10T23:49:20.370Z,5.25
2023-04-10T23:51:47.581Z,3.20
2023-04-10T23:54:14.724Z,3.50
2023-04-10T23:56:41.978Z,4.25
2023-04-10T23:59:09.537Z,4.28
